<?xml version="1.0" encoding="UTF-8" standalone="no" ?>
<gpx xmlns="http://www.topografix.com/GPX/1/1" xmlns:xsi="http://www.w3.org/2001/XMLSchema-instance" xsi:schemaLocation="http://www.topografix.com/GPX/1/1 http://www.topografix.com/GPX/1/1/gpx.xsd" version="1.1" creator="VisuGPX - https://www.visugpx.com">
  <metadata>
    <name>Prospection chemins praticables 1</name>
  </metadata>
  <trk>
    <name><![CDATA[Prospection chemins praticables 1_9]]></name>
    <trkseg>
      <trkpt lat="47.72045" lon="5.08089">
        <ele>466.7</ele>
        <time>2021-08-24T09:50:53Z</time>
      </trkpt>
      <trkpt lat="47.72054" lon="5.08091">
        <ele>466.98</ele>
        <time>2021-08-24T09:51:01Z</time>
      </trkpt>
      <trkpt lat="47.72066" lon="5.08093">
        <ele>467.21</ele>
        <time>2021-08-24T09:51:14Z</time>
      </trkpt>
      <trkpt lat="47.72072" lon="5.0809">
        <ele>466.7</ele>
        <time>2021-08-24T09:51:50Z</time>
      </trkpt>
      <trkpt lat="47.72074" lon="5.08087">
        <ele>466.46</ele>
        <time>2021-08-24T09:52:11Z</time>
      </trkpt>
      <trkpt lat="47.7208" lon="5.08091">
        <ele>466.62</ele>
        <time>2021-08-24T09:52:35Z</time>
      </trkpt>
      <trkpt lat="47.72086" lon="5.08109">
        <ele>466.18</ele>
        <time>2021-08-24T09:52:49Z</time>
      </trkpt>
      <trkpt lat="47.72087" lon="5.08117">
        <ele>466.4</ele>
        <time>2021-08-24T09:52:57Z</time>
      </trkpt>
      <trkpt lat="47.72088" lon="5.08124">
        <ele>466.25</ele>
        <time>2021-08-24T09:53:08Z</time>
      </trkpt>
      <trkpt lat="47.72087" lon="5.08112">
        <ele>466.34</ele>
        <time>2021-08-24T09:53:16Z</time>
      </trkpt>
      <trkpt lat="47.72084" lon="5.08095">
        <ele>467.03</ele>
        <time>2021-08-24T09:53:30Z</time>
      </trkpt>
      <trkpt lat="47.72083" lon="5.08091">
        <ele>466.88</ele>
        <time>2021-08-24T09:53:43Z</time>
      </trkpt>
      <trkpt lat="47.72087" lon="5.08095">
        <ele>466.7</ele>
        <time>2021-08-24T09:53:49Z</time>
      </trkpt>
      <trkpt lat="47.721" lon="5.08099">
        <ele>466.3</ele>
        <time>2021-08-24T09:54:03Z</time>
      </trkpt>
      <trkpt lat="47.72107" lon="5.08095">
        <ele>466.38</ele>
        <time>2021-08-24T09:54:18Z</time>
      </trkpt>
      <trkpt lat="47.72107" lon="5.08071">
        <ele>466.29</ele>
        <time>2021-08-24T09:54:34Z</time>
      </trkpt>
      <trkpt lat="47.72108" lon="5.08068">
        <ele>466.38</ele>
        <time>2021-08-24T09:54:37Z</time>
      </trkpt>
      <trkpt lat="47.72112" lon="5.08051">
        <ele>465.85</ele>
        <time>2021-08-24T09:54:49Z</time>
      </trkpt>
      <trkpt lat="47.72113" lon="5.08044">
        <ele>465.71</ele>
        <time>2021-08-24T09:54:55Z</time>
      </trkpt>
      <trkpt lat="47.72114" lon="5.08034">
        <ele>465.83</ele>
        <time>2021-08-24T09:55:03Z</time>
      </trkpt>
      <trkpt lat="47.72114" lon="5.08019">
        <ele>465.64</ele>
        <time>2021-08-24T09:55:17Z</time>
      </trkpt>
      <trkpt lat="47.72113" lon="5.08005">
        <ele>465.22</ele>
        <time>2021-08-24T09:55:32Z</time>
      </trkpt>
      <trkpt lat="47.72114" lon="5.07989">
        <ele>465.46</ele>
        <time>2021-08-24T09:55:46Z</time>
      </trkpt>
      <trkpt lat="47.72114" lon="5.07979">
        <ele>465</ele>
        <time>2021-08-24T09:55:58Z</time>
      </trkpt>
      <trkpt lat="47.72116" lon="5.07964">
        <ele>464.41</ele>
        <time>2021-08-24T09:56:11Z</time>
      </trkpt>
      <trkpt lat="47.72115" lon="5.0796">
        <ele>464.32</ele>
        <time>2021-08-24T09:56:15Z</time>
      </trkpt>
      <trkpt lat="47.72114" lon="5.07941">
        <ele>463.97</ele>
        <time>2021-08-24T09:56:33Z</time>
      </trkpt>
      <trkpt lat="47.72116" lon="5.07929">
        <ele>462.85</ele>
        <time>2021-08-24T09:56:46Z</time>
      </trkpt>
      <trkpt lat="47.72116" lon="5.07914">
        <ele>462.52</ele>
        <time>2021-08-24T09:57:01Z</time>
      </trkpt>
      <trkpt lat="47.72118" lon="5.07905">
        <ele>462.38</ele>
        <time>2021-08-24T09:57:17Z</time>
      </trkpt>
      <trkpt lat="47.72117" lon="5.07896">
        <ele>462.3</ele>
        <time>2021-08-24T09:57:25Z</time>
      </trkpt>
      <trkpt lat="47.72116" lon="5.07888">
        <ele>461.81</ele>
        <time>2021-08-24T09:57:38Z</time>
      </trkpt>
      <trkpt lat="47.72115" lon="5.07886">
        <ele>461.36</ele>
        <time>2021-08-24T09:58:05Z</time>
      </trkpt>
      <trkpt lat="47.72111" lon="5.07883">
        <ele>461.86</ele>
        <time>2021-08-24T09:58:26Z</time>
      </trkpt>
      <trkpt lat="47.7211" lon="5.07885">
        <ele>462.13</ele>
        <time>2021-08-24T10:00:05Z</time>
      </trkpt>
      <trkpt lat="47.72111" lon="5.07883">
        <ele>462.24</ele>
        <time>2021-08-24T10:01:04Z</time>
      </trkpt>
      <trkpt lat="47.72103" lon="5.0788">
        <ele>462.59</ele>
        <time>2021-08-24T10:01:43Z</time>
      </trkpt>
      <trkpt lat="47.72101" lon="5.07879">
        <ele>462.65</ele>
        <time>2021-08-24T10:01:47Z</time>
      </trkpt>
      <trkpt lat="47.72103" lon="5.07877">
        <ele>462.52</ele>
        <time>2021-08-24T10:01:50Z</time>
      </trkpt>
      <trkpt lat="47.72103" lon="5.07873">
        <ele>462.45</ele>
        <time>2021-08-24T10:01:53Z</time>
      </trkpt>
      <trkpt lat="47.72102" lon="5.07871">
        <ele>462.38</ele>
        <time>2021-08-24T10:02:00Z</time>
      </trkpt>
      <trkpt lat="47.72098" lon="5.07881">
        <ele>463.07</ele>
        <time>2021-08-24T10:02:07Z</time>
      </trkpt>
      <trkpt lat="47.72095" lon="5.07881">
        <ele>463.43</ele>
        <time>2021-08-24T10:02:10Z</time>
      </trkpt>
      <trkpt lat="47.72088" lon="5.07881">
        <ele>463.94</ele>
        <time>2021-08-24T10:02:16Z</time>
      </trkpt>
      <trkpt lat="47.72083" lon="5.07882">
        <ele>464.25</ele>
        <time>2021-08-24T10:02:21Z</time>
      </trkpt>
      <trkpt lat="47.72069" lon="5.07878">
        <ele>465.29</ele>
        <time>2021-08-24T10:02:35Z</time>
      </trkpt>
      <trkpt lat="47.72055" lon="5.07876">
        <ele>465.61</ele>
        <time>2021-08-24T10:02:48Z</time>
      </trkpt>
      <trkpt lat="47.7205" lon="5.07877">
        <ele>465.8</ele>
        <time>2021-08-24T10:02:52Z</time>
      </trkpt>
      <trkpt lat="47.72044" lon="5.07873">
        <ele>466.18</ele>
        <time>2021-08-24T10:02:58Z</time>
      </trkpt>
      <trkpt lat="47.72031" lon="5.07872">
        <ele>466.39</ele>
        <time>2021-08-24T10:03:10Z</time>
      </trkpt>
      <trkpt lat="47.72017" lon="5.0787">
        <ele>466.8</ele>
        <time>2021-08-24T10:03:23Z</time>
      </trkpt>
      <trkpt lat="47.72006" lon="5.07868">
        <ele>467.42</ele>
        <time>2021-08-24T10:03:34Z</time>
      </trkpt>
      <trkpt lat="47.72001" lon="5.07868">
        <ele>467.43</ele>
        <time>2021-08-24T10:03:38Z</time>
      </trkpt>
      <trkpt lat="47.71992" lon="5.07864">
        <ele>467.61</ele>
        <time>2021-08-24T10:03:50Z</time>
      </trkpt>
      <trkpt lat="47.71984" lon="5.07862">
        <ele>467.91</ele>
        <time>2021-08-24T10:04:00Z</time>
      </trkpt>
      <trkpt lat="47.71974" lon="5.07865">
        <ele>468.31</ele>
        <time>2021-08-24T10:04:09Z</time>
      </trkpt>
      <trkpt lat="47.7197" lon="5.07871">
        <ele>469.17</ele>
        <time>2021-08-24T10:04:14Z</time>
      </trkpt>
      <trkpt lat="47.71967" lon="5.07873">
        <ele>469.18</ele>
        <time>2021-08-24T10:04:27Z</time>
      </trkpt>
      <trkpt lat="47.71968" lon="5.07877">
        <ele>469.16</ele>
        <time>2021-08-24T10:05:13Z</time>
      </trkpt>
    </trkseg>
  </trk>
</gpx>